Time;durP1;ratioP1;P1;durP2;ratioP2;P2;SDS_P1;SDS_P2;PMS_P1;PMS_P2;Temp;Humidity;BMP_temperature;BMP_pressure;BME280_temperature;BME280_humidity;BME280_pressure;Samples;Min_cycle;Max_cycle;Signal;HPM_P1;HPM_P2
2023/02/09 00:01:57;;;;;;;6.07;4.63;;;;;;;;;;5136927;27;20030;-72
2023/02/09 00:04:24;;;;;;;6.28;4.65;;;;;;;;;;5148285;27;20041;-74
2023/02/09 00:06:50;;;;;;;6.32;4.35;;;;;;;;;;5148801;27;20019;-72
2023/02/09 00:09:16;;;;;;;6.10;4.68;;;;;;;;;;5149052;27;20026;-72
2023/02/09 00:14:28;;;;;;;6.72;3.80;;;;;;;;;;5148660;27;20646;-72
2023/02/09 00:16:54;;;;;;;5.25;4.00;;;;;;;;;;5146789;27;20027;-72
2023/02/09 00:19:20;;;;;;;6.72;4.25;;;;;;;;;;5148484;27;20047;-72
2023/02/09 00:21:48;;;;;;;5.15;3.70;;;;;;;;;;5148484;27;20102;-72
2023/02/09 00:24:14;;;;;;;6.05;3.67;;;;;;;;;;5130249;27;20394;-76
2023/02/09 00:26:41;;;;;;;9.48;3.97;;;;;;;;;;5148442;27;20031;-76
2023/02/09 00:29:08;;;;;;;4.75;3.22;;;;;;;;;;5147946;27;20015;-73
2023/02/09 00:31:34;;;;;;;3.60;3.17;;;;;;;;;;5146643;27;20111;-73
2023/02/09 00:34:01;;;;;;;4.72;3.42;;;;;;;;;;5148183;27;20100;-73
2023/02/09 00:36:28;;;;;;;4.10;3.10;;;;;;;;;;5148347;27;20042;-73
2023/02/09 00:38:55;;;;;;;6.47;3.85;;;;;;;;;;5148382;27;20110;-72
2023/02/09 00:42:04;;;;;;;6.57;3.17;;;;;;;;;;5146947;27;20054;-75
2023/02/09 00:44:08;;;;;;;4.43;3.15;;;;;;;;;;5148354;27;20039;-72
2023/02/09 00:46:34;;;;;;;6.32;4.63;;;;;;;;;;5148194;27;20152;-72
2023/02/09 00:49:00;;;;;;;5.78;3.83;;;;;;;;;;5147891;27;20152;-73
2023/02/09 00:51:27;;;;;;;5.47;3.75;;;;;;;;;;5146119;27;20015;-73
2023/02/09 00:53:53;;;;;;;4.18;3.10;;;;;;;;;;5147914;27;20121;-72
2023/02/09 00:56:19;;;;;;;5.13;3.08;;;;;;;;;;5147529;27;20415;-73
2023/02/09 00:58:45;;;;;;;5.97;3.40;;;;;;;;;;5148389;27;20023;-75
2023/02/09 01:01:12;;;;;;;6.70;5.05;;;;;;;;;;5146173;27;20090;-72
2023/02/09 01:03:41;;;;;;;5.55;3.55;;;;;;;;;;5147426;27;20139;-72
2023/02/09 01:06:08;;;;;;;4.28;3.03;;;;;;;;;;5147290;27;20542;-73
2023/02/09 01:08:35;;;;;;;3.97;2.90;;;;;;;;;;5147828;27;20075;-72
2023/02/09 01:11:08;;;;;;;5.53;3.90;;;;;;;;;;5145529;27;20035;-73
2023/02/09 01:13:34;;;;;;;5.00;3.42;;;;;;;;;;5142909;27;20042;-74
2023/02/09 01:16:04;;;;;;;7.00;2.92;;;;;;;;;;5146825;27;20037;-73
2023/02/09 01:18:30;;;;;;;5.20;3.72;;;;;;;;;;5147070;27;20102;-73
2023/02/09 01:20:56;;;;;;;4.32;3.28;;;;;;;;;;5147236;27;20133;-72
2023/02/09 01:23:22;;;;;;;5.35;3.63;;;;;;;;;;5145739;27;20426;-75
2023/02/09 01:25:48;;;;;;;5.80;3.33;;;;;;;;;;5146941;27;20101;-73
2023/02/09 01:28:15;;;;;;;4.82;3.60;;;;;;;;;;5147322;27;20129;-73
2023/02/09 01:30:41;;;;;;;5.35;3.38;;;;;;;;;;5145537;27;20050;-72
2023/02/09 01:33:07;;;;;;;3.88;3.10;;;;;;;;;;5127160;27;20081;-73
2023/02/09 01:35:33;;;;;;;11.02;3.50;;;;;;;;;;5146900;27;20023;-74
2023/02/09 01:37:59;;;;;;;5.60;3.78;;;;;;;;;;5147287;27;20113;-72
2023/02/09 01:40:25;;;;;;;5.03;3.13;;;;;;;;;;5144953;27;20461;-72
2023/02/09 01:42:52;;;;;;;5.63;3.65;;;;;;;;;;5147074;27;20156;-73
2023/02/09 01:45:44;;;;;;;8.18;3.80;;;;;;;;;;5146819;27;20102;-73
2023/02/09 01:48:12;;;;;;;6.72;3.58;;;;;;;;;;5143229;27;20042;-73
2023/02/09 01:50:40;;;;;;;11.50;6.68;;;;;;;;;;5127414;27;20018;-73
2023/02/09 01:53:07;;;;;;;12.50;7.50;;;;;;;;;;5146566;27;20110;-73
2023/02/09 01:55:35;;;;;;;10.32;7.10;;;;;;;;;;5146870;27;20113;-73
2023/02/09 01:58:10;;;;;;;7.30;5.28;;;;;;;;;;5146633;27;20448;-73
2023/02/09 02:00:36;;;;;;;9.23;5.70;;;;;;;;;;5144932;27;20110;-72
2023/02/09 02:03:04;;;;;;;8.10;6.25;;;;;;;;;;5146444;27;20098;-73
2023/02/09 02:05:33;;;;;;;8.45;5.85;;;;;;;;;;5146307;27;20078;-73
2023/02/09 02:08:08;;;;;;;7.20;5.13;;;;;;;;;;5144449;27;20379;-72
2023/02/09 02:10:35;;;;;;;6.22;3.72;;;;;;;;;;5146252;27;20159;-73
2023/02/09 02:13:01;;;;;;;5.30;3.58;;;;;;;;;;5127828;27;20031;-72
2023/02/09 02:15:32;;;;;;;5.20;3.00;;;;;;;;;;5146272;27;20022;-74
2023/02/09 02:17:58;;;;;;;4.38;3.38;;;;;;;;;;5144180;27;20023;-73
2023/02/09 02:20:36;;;;;;;5.25;3.35;;;;;;;;;;5146262;27;20053;-72
2023/02/09 02:23:03;;;;;;;4.43;3.33;;;;;;;;;;5146284;27;20027;-73
2023/02/09 02:25:44;;;;;;;5.05;3.65;;;;;;;;;;5144342;27;20101;-73
2023/02/09 02:28:29;;;;;;;4.68;3.15;;;;;;;;;;5145816;27;20105;-72
2023/02/09 02:31:14;;;;;;;5.38;2.88;;;;;;;;;;5127189;27;20047;-75
2023/02/09 02:33:55;;;;;;;4.80;2.97;;;;;;;;;;5144816;27;20027;-73
2023/02/09 02:36:24;;;;;;;4.82;2.55;;;;;;;;;;5145882;27;20050;-73
2023/02/09 02:38:56;;;;;;;3.33;2.33;;;;;;;;;;5145583;27;20039;-73
2023/02/09 02:41:28;;;;;;;3.67;2.30;;;;;;;;;;5145868;27;20018;-74
2023/02/09 02:43:54;;;;;;;;;;;;;;;;;;5144992;27;20033;-72
2023/02/09 02:46:26;;;;;;;5.15;2.78;;;;;;;;;;5145465;27;20010;-72
2023/02/09 02:48:54;;;;;;;4.75;2.97;;;;;;;;;;5146612;27;20098;-72
2023/02/09 02:51:23;;;;;;;3.92;2.85;;;;;;;;;;5145654;27;20041;-72
2023/02/09 02:53:52;;;;;;;4.53;2.70;;;;;;;;;;5145695;27;20033;-73
2023/02/09 02:56:20;;;;;;;4.05;2.47;;;;;;;;;;5146633;27;20046;-73
2023/02/09 02:58:48;;;;;;;2.90;2.38;;;;;;;;;;5148124;27;20019;-72
2023/02/09 03:01:16;;;;;;;3.22;2.35;;;;;;;;;;5129448;27;20475;-72
2023/02/09 03:03:43;;;;;;;3.55;2.40;;;;;;;;;;5147995;27;20015;-73
2023/02/09 03:06:10;;;;;;;4.13;2.20;;;;;;;;;;5148272;27;20033;-73
2023/02/09 03:08:50;;;;;;;4.18;2.63;;;;;;;;;;5146392;27;20122;-72
2023/02/09 03:11:18;;;;;;;4.07;2.42;;;;;;;;;;5148154;27;20030;-74
2023/02/09 03:13:44;;;;;;;3.78;2.58;;;;;;;;;;5148235;27;20541;-73
2023/02/09 03:16:23;;;;;;;3.53;2.42;;;;;;;;;;5147757;27;20101;-73
2023/02/09 03:19:08;;;;;;;4.47;2.40;;;;;;;;;;5147693;27;20031;-73
2023/02/09 03:21:53;;;;;;;4.97;2.53;;;;;;;;;;5150053;27;20050;-72
2023/02/09 03:24:24;;;;;;;3.92;2.42;;;;;;;;;;5139126;27;20065;-73
2023/02/09 03:27:09;;;;;;;3.40;2.67;;;;;;;;;;5151827;27;20423;-73
2023/02/09 03:29:37;;;;;;;4.00;2.70;;;;;;;;;;5151909;27;20112;-73
2023/02/09 03:32:03;;;;;;;3.25;2.42;;;;;;;;;;5152241;27;20121;-72
2023/02/09 03:34:29;;;;;;;3.08;2.45;;;;;;;;;;5152037;27;20122;-73
2023/02/09 03:36:57;;;;;;;4.43;2.85;;;;;;;;;;5150105;27;20041;-73
2023/02/09 03:39:23;;;;;;;3.28;2.33;;;;;;;;;;5151507;27;20435;-73
2023/02/09 03:41:49;;;;;;;3.25;2.60;;;;;;;;;;5151814;27;20010;-73
2023/02/09 03:44:25;;;;;;;4.35;2.45;;;;;;;;;;5151833;27;20595;-73
2023/02/09 03:46:51;;;;;;;6.15;2.70;;;;;;;;;;5127788;27;20478;-73
2023/02/09 03:49:18;;;;;;;5.10;2.92;;;;;;;;;;5151338;27;20490;-72
2023/02/09 03:51:44;;;;;;;4.85;3.17;;;;;;;;;;5151408;27;20034;-75
2023/02/09 03:54:10;;;;;;;4.90;2.88;;;;;;;;;;5151643;27;20485;-73
2023/02/09 03:56:36;;;;;;;4.35;2.97;;;;;;;;;;5151310;27;20058;-72
2023/02/09 03:59:03;;;;;;;3.85;2.60;;;;;;;;;;5133124;27;20022;-73
2023/02/09 04:01:32;;;;;;;4.47;2.63;;;;;;;;;;5149920;27;20075;-72
2023/02/09 04:03:59;;;;;;;3.08;2.33;;;;;;;;;;5151034;27;20022;-74
2023/02/09 04:06:25;;;;;;;3.45;2.40;;;;;;;;;;5124548;27;20031;-73
2023/02/09 04:08:51;;;;;;;3.85;2.80;;;;;;;;;;5147203;27;20113;-72
2023/02/09 04:11:17;;;;;;;7.07;2.50;;;;;;;;;;5149386;27;20062;-72
2023/02/09 04:13:43;;;;;;;3.72;2.42;;;;;;;;;;5148322;27;20126;-73
2023/02/09 04:16:10;;;;;;;4.65;2.70;;;;;;;;;;5148530;27;20106;-72
2023/02/09 04:18:36;;;;;;;5.20;2.83;;;;;;;;;;5144550;27;20029;-74
2023/02/09 04:21:02;;;;;;;5.05;2.67;;;;;;;;;;5145993;27;20109;-73
2023/02/09 04:23:28;;;;;;;3.90;2.22;;;;;;;;;;5144730;27;20071;-73
2023/02/09 04:25:54;;;;;;;2.85;2.05;;;;;;;;;;5146523;27;20101;-73
2023/02/09 04:28:20;;;;;;;4.85;2.20;;;;;;;;;;5146100;27;20674;-74
2023/02/09 04:30:51;;;;;;;3.00;1.92;;;;;;;;;;5143731;27;20053;-73
2023/02/09 04:33:18;;;;;;;;;;;;;;;;;;5146516;27;20123;-72
2023/02/09 04:35:45;;;;;;;5.90;2.10;;;;;;;;;;5145502;27;20391;-72
2023/02/09 04:38:11;;;;;;;3.83;1.73;;;;;;;;;;5145620;27;20038;-72
2023/02/09 04:40:37;;;;;;;2.58;1.60;;;;;;;;;;5144626;27;20015;-73
2023/02/09 04:43:03;;;;;;;5.68;2.28;;;;;;;;;;5145375;27;20430;-72
2023/02/09 04:45:29;;;;;;;4.85;1.75;;;;;;;;;;5145878;27;20117;-74
2023/02/09 04:47:56;;;;;;;1.60;1.20;;;;;;;;;;5145478;27;20034;-73
2023/02/09 04:50:22;;;;;;;2.38;1.48;;;;;;;;;;5144019;27;20106;-73
2023/02/09 04:52:48;;;;;;;3.05;1.70;;;;;;;;;;5145438;27;20098;-73
2023/02/09 04:55:14;;;;;;;6.53;1.83;;;;;;;;;;5145150;27;20126;-73
2023/02/09 05:00:26;;;;;;;5.35;1.63;;;;;;;;;;5132108;27;20070;-72
2023/02/09 05:02:53;;;;;;;4.38;1.60;;;;;;;;;;5144163;27;20483;-72
2023/02/09 05:05:20;;;;;;;2.60;1.33;;;;;;;;;;5145003;27;20518;-74
2023/02/09 05:07:46;;;;;;;3.60;1.60;;;;;;;;;;5145069;27;20171;-73
2023/02/09 05:10:12;;;;;;;3.97;1.45;;;;;;;;;;5144267;27;20142;-73
2023/02/09 05:12:38;;;;;;;5.28;1.70;;;;;;;;;;5143853;27;20490;-73
2023/02/09 05:15:05;;;;;;;3.78;1.17;;;;;;;;;;5145114;27;20077;-72
2023/02/09 05:17:32;;;;;;;2.45;1.30;;;;;;;;;;5145261;27;20019;-73
2023/02/09 05:19:58;;;;;;;4.47;1.40;;;;;;;;;;5144548;27;20171;-72
2023/02/09 05:22:24;;;;;;;2.20;1.10;;;;;;;;;;5144831;27;20022;-73
2023/02/09 05:24:51;;;;;;;3.03;1.17;;;;;;;;;;5143297;27;20098;-72
2023/02/09 05:27:17;;;;;;;1.20;0.85;;;;;;;;;;5144528;27;20664;-74
2023/02/09 05:29:43;;;;;;;2.67;1.00;;;;;;;;;;5144742;27;20121;-73
2023/02/09 05:32:09;;;;;;;5.00;1.17;;;;;;;;;;5145062;27;20110;-75
2023/02/09 05:34:36;;;;;;;4.15;1.30;;;;;;;;;;5144521;27;20528;-73
2023/02/09 05:37:02;;;;;;;2.70;1.10;;;;;;;;;;5144144;27;20033;-73
2023/02/09 05:39:28;;;;;;;3.33;1.63;;;;;;;;;;5142945;27;20102;-73
2023/02/09 05:44:39;;;;;;;4.30;1.50;;;;;;;;;;5144093;27;20041;-74
2023/02/09 05:47:06;;;;;;;3.40;1.42;;;;;;;;;;5144699;27;20122;-73
2023/02/09 05:49:32;;;;;;;3.17;1.50;;;;;;;;;;5143012;27;20038;-73
2023/02/09 05:51:58;;;;;;;5.07;1.60;;;;;;;;;;5143848;27;20420;-73
2023/02/09 05:54:24;;;;;;;2.40;1.20;;;;;;;;;;5144342;27;20106;-75
2023/02/09 05:56:50;;;;;;;2.60;1.35;;;;;;;;;;5143989;27;20026;-73
2023/02/09 05:59:17;;;;;;;2.40;1.35;;;;;;;;;;5144013;27;20488;-73
2023/02/09 06:01:43;;;;;;;2.40;1.58;;;;;;;;;;5144223;27;20117;-72
2023/02/09 06:04:09;;;;;;;5.65;1.60;;;;;;;;;;5143351;27;20022;-73
2023/02/09 06:06:35;;;;;;;2.40;1.17;;;;;;;;;;5143904;27;20035;-73
2023/02/09 06:09:02;;;;;;;4.55;2.35;;;;;;;;;;5144099;27;20114;-72
2023/02/09 06:11:28;;;;;;;3.15;1.40;;;;;;;;;;5142285;27;20057;-72
2023/02/09 06:13:54;;;;;;;4.43;1.40;;;;;;;;;;5143723;27;20030;-73
2023/02/09 06:16:20;;;;;;;2.78;1.48;;;;;;;;;;5144280;27;20157;-73
2023/02/09 06:18:46;;;;;;;2.10;1.30;;;;;;;;;;5140906;27;20057;-74
2023/02/09 06:21:13;;;;;;;2.97;1.30;;;;;;;;;;5143296;27;20030;-74
2023/02/09 06:23:39;;;;;;;3.83;1.40;;;;;;;;;;5143140;27;20102;-73
2023/02/09 06:26:06;;;;;;;3.85;1.23;;;;;;;;;;5141986;27;20152;-73
2023/02/09 06:28:32;;;;;;;3.38;1.40;;;;;;;;;;5142822;27;20019;-73
2023/02/09 06:30:58;;;;;;;6.97;1.52;;;;;;;;;;5143231;27;20106;-73
2023/02/09 06:33:25;;;;;;;1.60;1.00;;;;;;;;;;5142132;27;20105;-73
2023/02/09 06:35:51;;;;;;;3.97;1.10;;;;;;;;;;5144085;27;20109;-73
2023/02/09 06:38:17;;;;;;;3.30;1.05;;;;;;;;;;5143683;27;20102;-73
2023/02/09 06:40:43;;;;;;;3.75;1.15;;;;;;;;;;5144089;27;20045;-73
2023/02/09 06:43:09;;;;;;;3.97;1.13;;;;;;;;;;5142424;27;20093;-73
2023/02/09 06:45:38;;;;;;;2.55;1.17;;;;;;;;;;5143689;27;20054;-73
2023/02/09 06:48:05;;;;;;;11.85;1.50;;;;;;;;;;5143666;27;20046;-73
2023/02/09 06:50:31;;;;;;;3.30;1.30;;;;;;;;;;5143608;27;20109;-73
2023/02/09 06:52:58;;;;;;;2.92;1.17;;;;;;;;;;5123299;27;20500;-73
2023/02/09 06:55:24;;;;;;;4.30;1.10;;;;;;;;;;5143435;27;20149;-73
2023/02/09 06:57:50;;;;;;;3.03;1.00;;;;;;;;;;5143245;27;20021;-73
2023/02/09 07:00:16;;;;;;;5.18;1.20;;;;;;;;;;5143445;27;20037;-73
2023/02/09 07:02:43;;;;;;;5.25;1.02;;;;;;;;;;5142777;27;20014;-73
2023/02/09 07:05:11;;;;;;;4.80;1.30;;;;;;;;;;5137570;27;20624;-73
2023/02/09 07:07:37;;;;;;;3.75;1.38;;;;;;;;;;5116532;27;20054;-73
2023/02/09 07:10:04;;;;;;;3.75;1.13;;;;;;;;;;5138587;27;20098;-73
2023/02/09 07:12:31;;;;;;;3.08;1.17;;;;;;;;;;5142980;27;20019;-73
2023/02/09 07:14:57;;;;;;;5.85;1.20;;;;;;;;;;5141901;27;20050;-73
2023/02/09 07:17:23;;;;;;;3.55;1.10;;;;;;;;;;5142159;27;20026;-73
2023/02/09 07:19:49;;;;;;;7.40;1.02;;;;;;;;;;5142860;27;20521;-72
2023/02/09 07:22:16;;;;;;;3.13;1.00;;;;;;;;;;5140847;27;20051;-72
2023/02/09 07:24:42;;;;;;;4.53;1.08;;;;;;;;;;5141401;27;20094;-73
2023/02/09 07:27:08;;;;;;;1.70;0.93;;;;;;;;;;5123609;27;20562;-72
2023/02/09 07:29:34;;;;;;;2.63;0.90;;;;;;;;;;5142047;27;20026;-72
2023/02/09 07:32:00;;;;;;;4.63;1.30;;;;;;;;;;5121221;27;20489;-73
2023/02/09 07:34:26;;;;;;;2.30;1.00;;;;;;;;;;5122851;27;20037;-73
2023/02/09 07:36:53;;;;;;;4.70;1.17;;;;;;;;;;5141013;27;20045;-73
2023/02/09 07:39:19;;;;;;;2.03;1.10;;;;;;;;;;5141645;27;20046;-73
2023/02/09 07:41:45;;;;;;;2.35;0.90;;;;;;;;;;5142739;27;20458;-73
2023/02/09 07:44:11;;;;;;;2.17;1.15;;;;;;;;;;5140494;27;20113;-72
2023/02/09 07:46:37;;;;;;;2.60;0.75;;;;;;;;;;5142235;27;20044;-73
2023/02/09 07:49:03;;;;;;;1.80;0.90;;;;;;;;;;5141300;27;20104;-72
2023/02/09 07:51:30;;;;;;;4.75;0.82;;;;;;;;;;5140944;27;20098;-72
2023/02/09 07:53:56;;;;;;;2.38;0.82;;;;;;;;;;5141033;27;20114;-73
2023/02/09 07:56:23;;;;;;;3.40;0.82;;;;;;;;;;5120501;27;20089;-72
2023/02/09 07:58:49;;;;;;;2.60;1.00;;;;;;;;;;5142480;27;20010;-73
2023/02/09 08:01:15;;;;;;;2.72;0.80;;;;;;;;;;5139133;27;20105;-73
2023/02/09 08:03:42;;;;;;;2.47;0.90;;;;;;;;;;5141661;27;20082;-73
2023/02/09 08:06:17;;;;;;;3.17;0.60;;;;;;;;;;5142668;27;20382;-72
2023/02/09 08:08:47;;;;;;;2.05;0.77;;;;;;;;;;5125057;27;20263;-72
2023/02/09 08:11:14;;;;;;;2.20;0.68;;;;;;;;;;5146097;27;20030;-72
2023/02/09 08:13:40;;;;;;;2.30;0.70;;;;;;;;;;5145274;27;20073;-73
2023/02/09 08:16:09;;;;;;;2.72;0.65;;;;;;;;;;5144368;27;20014;-73
2023/02/09 08:18:38;;;;;;;2.53;0.93;;;;;;;;;;5144071;27;20030;-73
2023/02/09 08:21:05;;;;;;;4.60;0.70;;;;;;;;;;5145595;27;20545;-72
2023/02/09 08:23:33;;;;;;;3.20;0.80;;;;;;;;;;5145639;27;20035;-73
2023/02/09 08:26:01;;;;;;;2.08;0.80;;;;;;;;;;5146280;27;20019;-72
2023/02/09 08:28:27;;;;;;;4.13;0.80;;;;;;;;;;5143510;27;20027;-73
2023/02/09 08:30:54;;;;;;;2.92;0.65;;;;;;;;;;5144648;27;20026;-73
2023/02/09 08:33:20;;;;;;;0.95;0.50;;;;;;;;;;5126457;27;20094;-73
2023/02/09 08:35:51;;;;;;;1.50;0.65;;;;;;;;;;5144287;27;20046;-73
2023/02/09 08:38:17;;;;;;;3.22;0.68;;;;;;;;;;5145617;27;20026;-73
2023/02/09 08:40:43;;;;;;;2.67;0.77;;;;;;;;;;5145966;27;20033;-72
2023/02/09 08:43:10;;;;;;;2.90;1.00;;;;;;;;;;5143468;27;20086;-72
2023/02/09 08:45:37;;;;;;;2.28;0.95;;;;;;;;;;5145400;27;20011;-74
2023/02/09 08:48:05;;;;;;;3.42;1.27;;;;;;;;;;5145145;27;20046;-74
2023/02/09 08:50:31;;;;;;;2.85;0.85;;;;;;;;;;5145218;27;20019;-74
2023/02/09 08:52:58;;;;;;;1.25;0.60;;;;;;;;;;5144709;27;20129;-72
2023/02/09 08:55:25;;;;;;;2.70;0.70;;;;;;;;;;5143570;27;20030;-71
2023/02/09 08:57:51;;;;;;;3.28;1.00;;;;;;;;;;5144383;27;20102;-71
2023/02/09 09:00:17;;;;;;;3.03;1.05;;;;;;;;;;5144002;27;20054;-71
2023/02/09 09:02:43;;;;;;;3.40;1.10;;;;;;;;;;5145435;27;20649;-71
2023/02/09 09:05:10;;;;;;;2.70;1.20;;;;;;;;;;5145103;27;20114;-71
2023/02/09 09:07:36;;;;;;;2.90;1.10;;;;;;;;;;5144921;27;20023;-72
2023/02/09 09:10:03;;;;;;;2.60;1.30;;;;;;;;;;5144978;27;20029;-71
2023/02/09 09:12:30;;;;;;;3.10;0.90;;;;;;;;;;5145136;27;20076;-72
2023/02/09 09:14:56;;;;;;;2.03;1.00;;;;;;;;;;5144834;27;20467;-71
2023/02/09 09:17:22;;;;;;;3.70;1.70;;;;;;;;;;5145046;27;20513;-71
2023/02/09 09:19:51;;;;;;;2.00;1.20;;;;;;;;;;5142984;27;20046;-71
2023/02/09 09:22:17;;;;;;;3.58;1.40;;;;;;;;;;5142884;27;20022;-71
2023/02/09 09:24:43;;;;;;;4.70;1.60;;;;;;;;;;5144399;27;20486;-71
2023/02/09 09:27:10;;;;;;;2.40;1.17;;;;;;;;;;5142209;27;20771;-71
2023/02/09 09:29:38;;;;;;;2.75;1.30;;;;;;;;;;5140860;27;20031;-72
2023/02/09 09:32:05;;;;;;;2.33;1.20;;;;;;;;;;5144112;27;20019;-71
2023/02/09 09:34:31;;;;;;;8.70;1.10;;;;;;;;;;5144568;27;20466;-72
2023/02/09 09:36:57;;;;;;;2.60;1.50;;;;;;;;;;5145261;27;20374;-71
2023/02/09 09:39:24;;;;;;;4.03;1.30;;;;;;;;;;5143819;27;20023;-71
2023/02/09 09:41:53;;;;;;;5.93;1.73;;;;;;;;;;5143171;27;20106;-71
2023/02/09 09:44:39;;;;;;;5.32;1.70;;;;;;;;;;5144287;27;20890;-71
2023/02/09 09:47:11;;;;;;;2.08;1.30;;;;;;;;;;5144246;27;20039;-71
2023/02/09 09:49:37;;;;;;;3.47;1.40;;;;;;;;;;5144052;27;20106;-71
2023/02/09 09:52:22;;;;;;;5.35;1.40;;;;;;;;;;5142964;27;20026;-71
2023/02/09 09:54:48;;;;;;;3.63;1.90;;;;;;;;;;5139059;27;20037;-71
2023/02/09 09:57:19;;;;;;;3.92;1.30;;;;;;;;;;5144000;27;20426;-71
2023/02/09 09:59:46;;;;;;;7.43;1.70;;;;;;;;;;5143740;27;20033;-72
2023/02/09 10:02:22;;;;;;;6.50;1.60;;;;;;;;;;5142462;27;20693;-71
2023/02/09 10:04:49;;;;;;;5.75;1.70;;;;;;;;;;5141796;27;20030;-71
2023/02/09 10:07:19;;;;;;;2.88;1.40;;;;;;;;;;5144219;27;20023;-71
2023/02/09 10:09:48;;;;;;;3.10;1.52;;;;;;;;;;5128956;27;20559;-71
2023/02/09 10:12:14;;;;;;;4.05;1.67;;;;;;;;;;5138037;27;20027;-71
2023/02/09 10:14:40;;;;;;;2.92;1.52;;;;;;;;;;5134934;27;20027;-71
2023/02/09 10:17:07;;;;;;;5.10;1.48;;;;;;;;;;5129975;27;20090;-71
2023/02/09 10:19:33;;;;;;;4.40;1.15;;;;;;;;;;5137208;27;20536;-71
2023/02/09 10:21:59;;;;;;;5.57;1.48;;;;;;;;;;5129330;27;20050;-71
2023/02/09 10:24:30;;;;;;;5.93;1.63;;;;;;;;;;5132203;27;20504;-72
2023/02/09 10:27:13;;;;;;;3.28;1.40;;;;;;;;;;5110739;27;20523;-72
2023/02/09 10:29:39;;;;;;;;;;;;;;;;;;5138977;27;20615;-71
2023/02/09 10:32:06;;;;;;;2.88;1.20;;;;;;;;;;5132898;27;19911;-71
2023/02/09 10:34:39;;;;;;;4.57;1.40;;;;;;;;;;5128245;27;20031;-71
2023/02/09 10:37:09;;;;;;;2.80;1.08;;;;;;;;;;5131970;27;20027;-71
2023/02/09 10:39:35;;;;;;;7.45;1.45;;;;;;;;;;5138792;27;20023;-71
2023/02/09 10:42:31;;;;;;;4.05;1.40;;;;;;;;;;5124717;27;20467;-71
2023/02/09 10:45:03;;;;;;;4.05;2.08;;;;;;;;;;5117665;27;20065;-72
2023/02/09 10:47:29;;;;;;;;;;;;;;;;;;5131486;27;20642;-71
2023/02/09 10:50:10;;;;;;;3.80;1.55;;;;;;;;;;5139377;27;20212;-71
2023/02/09 10:52:38;;;;;;;5.75;1.58;;;;;;;;;;5124940;27;20076;-71
2023/02/09 10:55:06;;;;;;;2.92;1.35;;;;;;;;;;5131519;27;20037;-72
2023/02/09 10:57:37;;;;;;;3.78;1.13;;;;;;;;;;5132109;27;20058;-72
2023/02/09 11:00:15;;;;;;;3.97;1.35;;;;;;;;;;5129760;27;20027;-72
2023/02/09 11:02:48;;;;;;;2.28;1.20;;;;;;;;;;5129337;27;20103;-73
2023/02/09 11:05:20;;;;;;;3.00;1.10;;;;;;;;;;5131446;27;20023;-72
2023/02/09 11:08:10;;;;;;;5.13;1.50;;;;;;;;;;5138415;27;20023;-72
2023/02/09 11:10:40;;;;;;;3.75;1.13;;;;;;;;;;5111208;27;20054;-72
2023/02/09 11:13:15;;;;;;;4.78;1.50;;;;;;;;;;5128102;27;20034;-72
2023/02/09 11:15:45;;;;;;;6.40;1.58;;;;;;;;;;5127046;27;20121;-72
2023/02/09 11:18:16;;;;;;;3.33;1.30;;;;;;;;;;5140362;27;20023;-72
2023/02/09 11:20:56;;;;;;;6.22;1.15;;;;;;;;;;5131983;27;20573;-71
2023/02/09 11:23:41;;;;;;;5.07;1.30;;;;;;;;;;5128202;27;20027;-71
2023/02/09 11:26:20;;;;;;;4.40;1.20;;;;;;;;;;5129813;27;20030;-72
2023/02/09 11:28:49;;;;;;;5.60;1.80;;;;;;;;;;5129198;27;20027;-71
2023/02/09 11:31:51;;;;;;;3.83;1.10;;;;;;;;;;5132328;27;20087;-71
2023/02/09 11:34:23;;;;;;;2.53;0.95;;;;;;;;;;5075259;28;20101;-71
2023/02/09 11:36:49;;;;;;;;;;;;;;;;;;5115899;27;20039;-72
2023/02/09 11:39:21;;;;;;;2.72;1.13;;;;;;;;;;5133185;27;19908;-71
2023/02/09 11:45:02;;;;;;;2.40;1.00;;;;;;;;;;5128800;27;20071;-71
2023/02/09 11:47:32;;;;;;;3.63;1.17;;;;;;;;;;5129323;27;20399;-72
2023/02/09 11:50:01;;;;;;;1.40;0.88;;;;;;;;;;5139218;27;20034;-72
2023/02/09 11:52:31;;;;;;;2.05;1.20;;;;;;;;;;5133526;27;20096;-72
2023/02/09 11:55:00;;;;;;;1.35;0.90;;;;;;;;;;5138258;27;20498;-72
2023/02/09 11:57:33;;;;;;;5.68;1.10;;;;;;;;;;5133952;27;20038;-72
2023/02/09 12:00:01;;;;;;;2.72;1.08;;;;;;;;;;5136782;27;20067;-71
2023/02/09 12:02:33;;;;;;;4.18;1.15;;;;;;;;;;5131080;27;20110;-72
2023/02/09 12:05:00;;;;;;;;;;;;;;;;;;5135013;27;20035;-71
2023/02/09 12:07:44;;;;;;;2.45;0.95;;;;;;;;;;5130458;27;19911;-71
2023/02/09 12:10:19;;;;;;;2.83;0.88;;;;;;;;;;5131905;27;20026;-71
2023/02/09 12:12:50;;;;;;;2.33;1.10;;;;;;;;;;5135563;27;20064;-72
2023/02/09 12:15:19;;;;;;;2.15;1.00;;;;;;;;;;5130732;27;20031;-72
2023/02/09 12:17:45;;;;;;;5.05;1.10;;;;;;;;;;5133447;27;20068;-72
2023/02/09 12:20:43;;;;;;;1.45;0.90;;;;;;;;;;5131820;27;20046;-72
2023/02/09 12:23:15;;;;;;;3.00;1.00;;;;;;;;;;5093765;27;20042;-72
2023/02/09 12:25:58;;;;;;;2.75;1.10;;;;;;;;;;5131008;27;20015;-72
2023/02/09 12:28:27;;;;;;;3.28;1.27;;;;;;;;;;5136165;27;20036;-72
2023/02/09 12:30:53;;;;;;;2.15;1.30;;;;;;;;;;5129001;27;20169;-72
2023/02/09 12:33:22;;;;;;;3.40;2.65;;;;;;;;;;5131015;27;20595;-72
2023/02/09 12:36:12;;;;;;;5.20;3.75;;;;;;;;;;5144077;27;20072;-72
2023/02/09 12:38:50;;;;;;;7.50;5.03;;;;;;;;;;5122278;27;20030;-71
2023/02/09 12:41:27;;;;;;;7.40;5.43;;;;;;;;;;5130025;27;20019;-71
2023/02/09 12:44:08;;;;;;;9.35;5.32;;;;;;;;;;5134377;27;20056;-71
2023/02/09 12:46:44;;;;;;;8.68;4.55;;;;;;;;;;5139606;27;20023;-71
2023/02/09 12:49:13;;;;;;;6.75;3.30;;;;;;;;;;5134415;27;20057;-71
2023/02/09 12:51:41;;;;;;;4.97;3.53;;;;;;;;;;5130335;27;20018;-71
2023/02/09 12:54:43;;;;;;;5.38;3.50;;;;;;;;;;5132328;27;20022;-71
2023/02/09 12:57:32;;;;;;;8.13;2.92;;;;;;;;;;5034872;28;20073;-72
2023/02/09 12:59:58;;;;;;;5.20;3.70;;;;;;;;;;5111957;27;20465;-71
2023/02/09 13:02:49;;;;;;;4.70;3.28;;;;;;;;;;5137930;27;20104;-72
2023/02/09 13:05:21;;;;;;;6.90;4.15;;;;;;;;;;5138747;27;20409;-72
2023/02/09 13:08:02;;;;;;;5.72;4.35;;;;;;;;;;5133497;27;20114;-72
2023/02/09 13:10:33;;;;;;;9.52;5.47;;;;;;;;;;5133515;27;20019;-72
2023/02/09 13:13:03;;;;;;;13.00;6.22;;;;;;;;;;5126174;27;20027;-71
2023/02/09 13:15:35;;;;;;;5.72;4.57;;;;;;;;;;5132789;27;20426;-72
2023/02/09 13:18:13;;;;;;;3.63;2.72;;;;;;;;;;5127275;27;20608;-73
2023/02/09 13:20:53;;;;;;;3.95;2.50;;;;;;;;;;5132054;27;20046;-72
2023/02/09 13:23:22;;;;;;;3.75;2.30;;;;;;;;;;5132158;27;20088;-71
2023/02/09 13:25:49;;;;;;;4.03;2.00;;;;;;;;;;5131060;27;20026;-71
2023/02/09 13:28:21;;;;;;;2.53;1.60;;;;;;;;;;5130309;27;20584;-72
2023/02/09 13:30:48;;;;;;;1.67;1.27;;;;;;;;;;5129736;27;20023;-72
2023/02/09 13:33:16;;;;;;;3.42;1.23;;;;;;;;;;5130871;27;20107;-72
2023/02/09 13:36:00;;;;;;;2.25;1.35;;;;;;;;;;5132386;27;20031;-72
2023/02/09 13:38:28;;;;;;;1.27;0.80;;;;;;;;;;5134029;27;20018;-71
2023/02/09 13:40:55;;;;;;;1.50;1.08;;;;;;;;;;5128711;27;20094;-72
2023/02/09 13:43:24;;;;;;;2.63;0.88;;;;;;;;;;5136324;27;20054;-71
2023/02/09 13:45:51;;;;;;;2.13;1.48;;;;;;;;;;5130147;27;20027;-72
2023/02/09 13:48:23;;;;;;;3.00;1.00;;;;;;;;;;5129817;27;20017;-72
2023/02/09 13:50:50;;;;;;;1.55;0.95;;;;;;;;;;5131313;27;20458;-72
2023/02/09 13:53:18;;;;;;;2.03;1.13;;;;;;;;;;5141865;27;20023;-71
2023/02/09 13:55:45;;;;;;;1.15;0.77;;;;;;;;;;5135367;27;20030;-71
2023/02/09 13:58:38;;;;;;;3.50;0.80;;;;;;;;;;5137705;27;20028;-72
2023/02/09 14:01:04;;;;;;;;;;;;;;;;;;5135231;27;20133;-72
2023/02/09 14:03:36;;;;;;;2.97;1.90;;;;;;;;;;5137029;27;19990;-71
2023/02/09 14:06:06;;;;;;;3.45;2.50;;;;;;;;;;5129229;27;20409;-71
2023/02/09 14:08:32;;;;;;;3.75;2.88;;;;;;;;;;5132086;27;20011;-71
2023/02/09 14:11:13;;;;;;;7.05;3.25;;;;;;;;;;5138522;27;20030;-72
2023/02/09 14:13:42;;;;;;;4.45;2.60;;;;;;;;;;5138107;27;20018;-72
2023/02/09 14:16:08;;;;;;;5.22;3.00;;;;;;;;;;5130210;27;20031;-72
2023/02/09 14:18:53;;;;;;;5.75;3.28;;;;;;;;;;5131233;27;20023;-72
2023/02/09 14:21:19;;;;;;;5.97;3.40;;;;;;;;;;5133355;27;20787;-72
2023/02/09 14:23:46;;;;;;;8.07;4.18;;;;;;;;;;5131998;27;20590;-71
2023/02/09 14:26:15;;;;;;;6.75;4.53;;;;;;;;;;5140769;27;20026;-71
2023/02/09 14:28:43;;;;;;;7.45;4.40;;;;;;;;;;5137540;27;20027;-71
2023/02/09 14:31:36;;;;;;;7.18;4.25;;;;;;;;;;5136595;27;20026;-71
2023/02/09 14:34:02;;;;;;;7.68;3.85;;;;;;;;;;5129146;27;20169;-71
2023/02/09 14:36:32;;;;;;;7.40;4.50;;;;;;;;;;5125576;27;20075;-71
2023/02/09 14:39:12;;;;;;;5.72;4.22;;;;;;;;;;5129713;27;20019;-72
2023/02/09 14:41:39;;;;;;;8.35;3.60;;;;;;;;;;5129067;27;20014;-72
2023/02/09 14:44:05;;;;;;;6.25;4.20;;;;;;;;;;5126051;27;20463;-72
2023/02/09 14:46:50;;;;;;;3.97;2.92;;;;;;;;;;5131203;27;20021;-72
2023/02/09 14:49:16;;;;;;;7.00;2.45;;;;;;;;;;5122537;27;20319;-72
2023/02/09 14:51:43;;;;;;;4.20;3.25;;;;;;;;;;5131608;27;20014;-72
2023/02/09 14:54:35;;;;;;;6.78;2.85;;;;;;;;;;5124053;27;20023;-72
2023/02/09 14:57:03;;;;;;;5.82;2.95;;;;;;;;;;5125860;27;20053;-72
2023/02/09 14:59:29;;;;;;;7.57;3.17;;;;;;;;;;5131234;27;20099;-72
2023/02/09 15:01:55;;;;;;;5.70;2.85;;;;;;;;;;5128386;27;20570;-71
2023/02/09 15:04:22;;;;;;;6.22;3.10;;;;;;;;;;5129951;27;20030;-72
2023/02/09 15:06:52;;;;;;;5.15;2.65;;;;;;;;;;5127571;27;20019;-72
2023/02/09 15:09:22;;;;;;;6.40;2.30;;;;;;;;;;5137744;27;20019;-72
2023/02/09 15:12:03;;;;;;;3.88;2.33;;;;;;;;;;5127234;27;20015;-72